sensor_id;sensor_type;location;lat;lon;timestamp;P1;durP1;ratioP1;P2;durP2;ratioP2
84412;SDS011;74611;53.106;8.778;2024-03-06T00:01:49;3.83;;;1.30;;
84412;SDS011;74611;53.106;8.778;2024-03-06T00:04:14;1.88;;;0.80;;
84412;SDS011;74611;53.106;8.778;2024-03-06T00:06:40;4.10;;;1.55;;
84412;SDS011;74611;53.106;8.778;2024-03-06T00:09:05;4.88;;;1.77;;
84412;SDS011;74611;53.106;8.778;2024-03-06T00:11:33;2.75;;;0.88;;
84412;SDS011;74611;53.106;8.778;2024-03-06T00:14:02;3.38;;;0.93;;
84412;SDS011;74611;53.106;8.778;2024-03-06T00:16:27;2.78;;;1.05;;
84412;SDS011;74611;53.106;8.778;2024-03-06T00:18:53;5.18;;;1.98;;
84412;SDS011;74611;53.106;8.778;2024-03-06T00:21:19;4.13;;;1.58;;
84412;SDS011;74611;53.106;8.778;2024-03-06T00:23:44;4.60;;;1.63;;
84412;SDS011;74611;53.106;8.778;2024-03-06T00:26:11;5.57;;;1.23;;
84412;SDS011;74611;53.106;8.778;2024-03-06T00:28:38;3.55;;;1.60;;
84412;SDS011;74611;53.106;8.778;2024-03-06T00:31:04;3.03;;;0.77;;
84412;SDS011;74611;53.106;8.778;2024-03-06T00:33:30;4.75;;;1.25;;
84412;SDS011;74611;53.106;8.778;2024-03-06T00:35:56;4.00;;;1.10;;
84412;SDS011;74611;53.106;8.778;2024-03-06T00:38:22;4.43;;;1.40;;
84412;SDS011;74611;53.106;8.778;2024-03-06T00:40:48;4.55;;;1.60;;
84412;SDS011;74611;53.106;8.778;2024-03-06T00:43:13;2.88;;;1.10;;
84412;SDS011;74611;53.106;8.778;2024-03-06T00:45:41;4.97;;;1.75;;
84412;SDS011;74611;53.106;8.778;2024-03-06T00:48:07;3.75;;;1.70;;
84412;SDS011;74611;53.106;8.778;2024-03-06T00:50:33;5.57;;;1.70;;
84412;SDS011;74611;53.106;8.778;2024-03-06T00:52:58;3.67;;;1.60;;
84412;SDS011;74611;53.106;8.778;2024-03-06T00:55:24;5.10;;;1.02;;
84412;SDS011;74611;53.106;8.778;2024-03-06T00:57:49;3.78;;;1.13;;
84412;SDS011;74611;53.106;8.778;2024-03-06T01:00:15;5.65;;;1.45;;
84412;SDS011;74611;53.106;8.778;2024-03-06T01:02:41;5.13;;;1.13;;
84412;SDS011;74611;53.106;8.778;2024-03-06T01:05:06;4.47;;;1.73;;
84412;SDS011;74611;53.106;8.778;2024-03-06T01:07:32;4.55;;;1.52;;
84412;SDS011;74611;53.106;8.778;2024-03-06T01:09:59;4.57;;;1.13;;
84412;SDS011;74611;53.106;8.778;2024-03-06T01:12:26;3.63;;;1.75;;
84412;SDS011;74611;53.106;8.778;2024-03-06T01:14:52;3.15;;;1.23;;
84412;SDS011;74611;53.106;8.778;2024-03-06T01:17:17;3.97;;;1.30;;
84412;SDS011;74611;53.106;8.778;2024-03-06T01:19:43;4.43;;;1.33;;
84412;SDS011;74611;53.106;8.778;2024-03-06T01:22:09;3.22;;;1.05;;
84412;SDS011;74611;53.106;8.778;2024-03-06T01:24:35;6.45;;;1.83;;
84412;SDS011;74611;53.106;8.778;2024-03-06T01:27:01;5.20;;;1.35;;
84412;SDS011;74611;53.106;8.778;2024-03-06T01:29:29;10.50;;;1.73;;
84412;SDS011;74611;53.106;8.778;2024-03-06T01:31:55;3.08;;;1.27;;
84412;SDS011;74611;53.106;8.778;2024-03-06T01:34:20;2.67;;;0.75;;
84412;SDS011;74611;53.106;8.778;2024-03-06T01:36:47;2.28;;;1.33;;
84412;SDS011;74611;53.106;8.778;2024-03-06T01:39:13;3.80;;;1.45;;
84412;SDS011;74611;53.106;8.778;2024-03-06T01:41:44;2.55;;;0.93;;
84412;SDS011;74611;53.106;8.778;2024-03-06T01:44:11;7.32;;;1.58;;
84412;SDS011;74611;53.106;8.778;2024-03-06T01:46:37;7.03;;;1.30;;
84412;SDS011;74611;53.106;8.778;2024-03-06T01:49:03;3.33;;;1.38;;
84412;SDS011;74611;53.106;8.778;2024-03-06T01:51:29;5.45;;;1.73;;
84412;SDS011;74611;53.106;8.778;2024-03-06T01:53:59;5.85;;;1.52;;
84412;SDS011;74611;53.106;8.778;2024-03-06T01:56:26;2.10;;;0.95;;
84412;SDS011;74611;53.106;8.778;2024-03-06T01:58:52;3.55;;;1.10;;
84412;SDS011;74611;53.106;8.778;2024-03-06T02:01:19;4.03;;;1.40;;
84412;SDS011;74611;53.106;8.778;2024-03-06T02:03:46;4.03;;;1.23;;
84412;SDS011;74611;53.106;8.778;2024-03-06T02:06:12;5.68;;;1.75;;
84412;SDS011;74611;53.106;8.778;2024-03-06T02:08:40;5.18;;;1.52;;
84412;SDS011;74611;53.106;8.778;2024-03-06T02:11:06;2.53;;;1.10;;
84412;SDS011;74611;53.106;8.778;2024-03-06T02:13:32;4.93;;;1.73;;
84412;SDS011;74611;53.106;8.778;2024-03-06T02:15:59;5.05;;;1.63;;
84412;SDS011;74611;53.106;8.778;2024-03-06T02:18:24;4.38;;;1.13;;
84412;SDS011;74611;53.106;8.778;2024-03-06T02:20:50;4.43;;;1.92;;
84412;SDS011;74611;53.106;8.778;2024-03-06T02:23:16;3.75;;;1.30;;
84412;SDS011;74611;53.106;8.778;2024-03-06T02:25:44;4.60;;;1.77;;
84412;SDS011;74611;53.106;8.778;2024-03-06T02:28:15;4.00;;;1.20;;
84412;SDS011;74611;53.106;8.778;2024-03-06T02:30:45;3.30;;;1.20;;
84412;SDS011;74611;53.106;8.778;2024-03-06T02:33:14;2.80;;;1.05;;
84412;SDS011;74611;53.106;8.778;2024-03-06T02:35:40;4.20;;;1.45;;
84412;SDS011;74611;53.106;8.778;2024-03-06T02:38:05;3.90;;;1.10;;
84412;SDS011;74611;53.106;8.778;2024-03-06T02:40:31;6.28;;;1.77;;
84412;SDS011;74611;53.106;8.778;2024-03-06T02:42:57;4.60;;;1.67;;
84412;SDS011;74611;53.106;8.778;2024-03-06T02:45:23;9.02;;;2.30;;
84412;SDS011;74611;53.106;8.778;2024-03-06T02:47:49;5.43;;;1.67;;
84412;SDS011;74611;53.106;8.778;2024-03-06T02:50:14;3.28;;;0.88;;
84412;SDS011;74611;53.106;8.778;2024-03-06T02:52:40;4.68;;;1.30;;
84412;SDS011;74611;53.106;8.778;2024-03-06T02:55:06;5.55;;;1.60;;
84412;SDS011;74611;53.106;8.778;2024-03-06T02:57:31;4.35;;;1.92;;
84412;SDS011;74611;53.106;8.778;2024-03-06T02:59:58;6.50;;;2.17;;
84412;SDS011;74611;53.106;8.778;2024-03-06T03:02:24;5.07;;;1.65;;
84412;SDS011;74611;53.106;8.778;2024-03-06T03:04:50;3.78;;;1.30;;
84412;SDS011;74611;53.106;8.778;2024-03-06T03:09:44;3.05;;;0.88;;
84412;SDS011;74611;53.106;8.778;2024-03-06T03:12:10;3.47;;;1.73;;
84412;SDS011;74611;53.106;8.778;2024-03-06T03:14:36;3.42;;;1.40;;
84412;SDS011;74611;53.106;8.778;2024-03-06T03:17:03;3.35;;;1.25;;
84412;SDS011;74611;53.106;8.778;2024-03-06T03:19:30;4.18;;;1.42;;
84412;SDS011;74611;53.106;8.778;2024-03-06T03:21:56;4.25;;;0.88;;
84412;SDS011;74611;53.106;8.778;2024-03-06T03:24:23;3.63;;;1.35;;
84412;SDS011;74611;53.106;8.778;2024-03-06T03:26:50;7.38;;;2.15;;
84412;SDS011;74611;53.106;8.778;2024-03-06T03:29:16;4.18;;;1.75;;
84412;SDS011;74611;53.106;8.778;2024-03-06T03:31:42;4.65;;;1.80;;
84412;SDS011;74611;53.106;8.778;2024-03-06T03:34:07;3.92;;;1.58;;
84412;SDS011;74611;53.106;8.778;2024-03-06T03:36:34;3.45;;;1.30;;
84412;SDS011;74611;53.106;8.778;2024-03-06T03:39:00;3.67;;;1.40;;
84412;SDS011;74611;53.106;8.778;2024-03-06T03:41:25;1.88;;;1.10;;
84412;SDS011;74611;53.106;8.778;2024-03-06T03:43:51;4.57;;;1.75;;
84412;SDS011;74611;53.106;8.778;2024-03-06T03:46:16;4.68;;;2.17;;
84412;SDS011;74611;53.106;8.778;2024-03-06T03:48:42;6.70;;;1.33;;
84412;SDS011;74611;53.106;8.778;2024-03-06T03:51:08;6.05;;;1.70;;
84412;SDS011;74611;53.106;8.778;2024-03-06T03:53:34;4.72;;;1.63;;
84412;SDS011;74611;53.106;8.778;2024-03-06T03:56:00;4.88;;;0.90;;
84412;SDS011;74611;53.106;8.778;2024-03-06T03:58:25;3.92;;;1.50;;
84412;SDS011;74611;53.106;8.778;2024-03-06T04:00:51;3.30;;;1.23;;
84412;SDS011;74611;53.106;8.778;2024-03-06T04:03:20;2.10;;;1.00;;
84412;SDS011;74611;53.106;8.778;2024-03-06T04:05:47;3.25;;;1.10;;
84412;SDS011;74611;53.106;8.778;2024-03-06T04:08:13;4.82;;;1.13;;
84412;SDS011;74611;53.106;8.778;2024-03-06T04:10:38;3.88;;;1.15;;
84412;SDS011;74611;53.106;8.778;2024-03-06T04:13:04;8.60;;;2.30;;
84412;SDS011;74611;53.106;8.778;2024-03-06T04:15:31;3.58;;;1.25;;
84412;SDS011;74611;53.106;8.778;2024-03-06T04:17:57;5.88;;;1.65;;
84412;SDS011;74611;53.106;8.778;2024-03-06T04:20:23;5.25;;;1.95;;
84412;SDS011;74611;53.106;8.778;2024-03-06T04:22:48;2.63;;;1.15;;
84412;SDS011;74611;53.106;8.778;2024-03-06T04:25:16;3.13;;;1.25;;
84412;SDS011;74611;53.106;8.778;2024-03-06T04:27:41;3.10;;;1.25;;
84412;SDS011;74611;53.106;8.778;2024-03-06T04:30:07;8.00;;;1.65;;
84412;SDS011;74611;53.106;8.778;2024-03-06T04:32:34;4.95;;;1.67;;
84412;SDS011;74611;53.106;8.778;2024-03-06T04:34:59;7.68;;;1.30;;
84412;SDS011;74611;53.106;8.778;2024-03-06T04:37:25;4.82;;;1.40;;
84412;SDS011;74611;53.106;8.778;2024-03-06T04:39:51;5.28;;;1.85;;
84412;SDS011;74611;53.106;8.778;2024-03-06T04:42:17;4.65;;;1.33;;
84412;SDS011;74611;53.106;8.778;2024-03-06T04:44:45;4.22;;;1.38;;
84412;SDS011;74611;53.106;8.778;2024-03-06T04:47:10;8.20;;;1.30;;
84412;SDS011;74611;53.106;8.778;2024-03-06T04:49:36;5.05;;;1.60;;
84412;SDS011;74611;53.106;8.778;2024-03-06T04:52:02;3.95;;;1.25;;
84412;SDS011;74611;53.106;8.778;2024-03-06T04:54:28;4.13;;;1.38;;
84412;SDS011;74611;53.106;8.778;2024-03-06T04:56:54;3.45;;;1.27;;
84412;SDS011;74611;53.106;8.778;2024-03-06T04:59:20;3.20;;;1.45;;
84412;SDS011;74611;53.106;8.778;2024-03-06T05:01:45;8.23;;;1.70;;
84412;SDS011;74611;53.106;8.778;2024-03-06T05:04:11;2.65;;;1.05;;
84412;SDS011;74611;53.106;8.778;2024-03-06T05:06:37;5.00;;;1.25;;
84412;SDS011;74611;53.106;8.778;2024-03-06T05:09:02;3.50;;;1.40;;
84412;SDS011;74611;53.106;8.778;2024-03-06T05:11:29;3.15;;;1.23;;
84412;SDS011;74611;53.106;8.778;2024-03-06T05:13:57;8.93;;;1.52;;
84412;SDS011;74611;53.106;8.778;2024-03-06T05:16:23;3.60;;;1.25;;
84412;SDS011;74611;53.106;8.778;2024-03-06T05:18:49;4.43;;;1.48;;
84412;SDS011;74611;53.106;8.778;2024-03-06T05:21:15;3.83;;;1.38;;
84412;SDS011;74611;53.106;8.778;2024-03-06T05:23:41;6.65;;;2.25;;
84412;SDS011;74611;53.106;8.778;2024-03-06T05:26:06;3.35;;;0.82;;
84412;SDS011;74611;53.106;8.778;2024-03-06T05:28:32;6.30;;;1.50;;
84412;SDS011;74611;53.106;8.778;2024-03-06T05:30:58;3.55;;;1.13;;
84412;SDS011;74611;53.106;8.778;2024-03-06T05:33:25;4.40;;;1.48;;
84412;SDS011;74611;53.106;8.778;2024-03-06T05:35:53;3.75;;;1.35;;
84412;SDS011;74611;53.106;8.778;2024-03-06T05:38:19;4.38;;;1.67;;
84412;SDS011;74611;53.106;8.778;2024-03-06T05:40:47;3.28;;;1.17;;
84412;SDS011;74611;53.106;8.778;2024-03-06T05:43:12;3.20;;;0.82;;
84412;SDS011;74611;53.106;8.778;2024-03-06T05:45:38;5.82;;;2.70;;
84412;SDS011;74611;53.106;8.778;2024-03-06T05:48:04;2.60;;;1.20;;
84412;SDS011;74611;53.106;8.778;2024-03-06T05:50:30;6.05;;;1.70;;
84412;SDS011;74611;53.106;8.778;2024-03-06T05:52:57;3.75;;;1.42;;
84412;SDS011;74611;53.106;8.778;2024-03-06T05:55:22;4.65;;;1.00;;
84412;SDS011;74611;53.106;8.778;2024-03-06T05:57:48;5.38;;;1.95;;
84412;SDS011;74611;53.106;8.778;2024-03-06T06:00:14;4.68;;;1.83;;
84412;SDS011;74611;53.106;8.778;2024-03-06T06:02:43;3.90;;;1.67;;
84412;SDS011;74611;53.106;8.778;2024-03-06T06:05:10;4.22;;;1.55;;
84412;SDS011;74611;53.106;8.778;2024-03-06T06:07:36;4.70;;;1.30;;
84412;SDS011;74611;53.106;8.778;2024-03-06T06:10:03;3.15;;;1.55;;
84412;SDS011;74611;53.106;8.778;2024-03-06T06:12:33;4.80;;;1.50;;
84412;SDS011;74611;53.106;8.778;2024-03-06T06:14:59;4.18;;;1.38;;
84412;SDS011;74611;53.106;8.778;2024-03-06T06:17:24;3.20;;;1.60;;
84412;SDS011;74611;53.106;8.778;2024-03-06T06:19:50;5.72;;;1.65;;
84412;SDS011;74611;53.106;8.778;2024-03-06T06:22:16;3.50;;;1.45;;
84412;SDS011;74611;53.106;8.778;2024-03-06T06:24:41;5.60;;;1.75;;
84412;SDS011;74611;53.106;8.778;2024-03-06T06:27:07;5.13;;;1.73;;
84412;SDS011;74611;53.106;8.778;2024-03-06T06:29:33;2.75;;;1.15;;
84412;SDS011;74611;53.106;8.778;2024-03-06T06:31:59;4.13;;;1.42;;
84412;SDS011;74611;53.106;8.778;2024-03-06T06:34:24;2.72;;;0.98;;
84412;SDS011;74611;53.106;8.778;2024-03-06T06:36:53;4.03;;;1.52;;
84412;SDS011;74611;53.106;8.778;2024-03-06T06:39:19;2.58;;;1.30;;
84412;SDS011;74611;53.106;8.778;2024-03-06T06:41:44;7.30;;;2.42;;
84412;SDS011;74611;53.106;8.778;2024-03-06T06:44:10;2.25;;;1.15;;
84412;SDS011;74611;53.106;8.778;2024-03-06T06:46:35;2.80;;;1.33;;
84412;SDS011;74611;53.106;8.778;2024-03-06T06:49:01;5.47;;;1.25;;
84412;SDS011;74611;53.106;8.778;2024-03-06T06:51:27;3.70;;;1.55;;
84412;SDS011;74611;53.106;8.778;2024-03-06T06:53:52;4.78;;;1.58;;
84412;SDS011;74611;53.106;8.778;2024-03-06T06:56:19;3.15;;;1.15;;
84412;SDS011;74611;53.106;8.778;2024-03-06T06:58:47;4.10;;;1.67;;
84412;SDS011;74611;53.106;8.778;2024-03-06T07:01:13;4.82;;;2.05;;
84412;SDS011;74611;53.106;8.778;2024-03-06T07:03:41;4.03;;;1.20;;
84412;SDS011;74611;53.106;8.778;2024-03-06T07:06:07;2.33;;;0.93;;
84412;SDS011;74611;53.106;8.778;2024-03-06T07:08:33;3.95;;;1.92;;
84412;SDS011;74611;53.106;8.778;2024-03-06T07:10:58;3.15;;;0.88;;
84412;SDS011;74611;53.106;8.778;2024-03-06T07:13:24;1.55;;;0.43;;
84412;SDS011;74611;53.106;8.778;2024-03-06T07:15:50;5.50;;;1.83;;
84412;SDS011;74611;53.106;8.778;2024-03-06T07:18:16;3.85;;;1.63;;
84412;SDS011;74611;53.106;8.778;2024-03-06T07:20:42;4.05;;;1.33;;
84412;SDS011;74611;53.106;8.778;2024-03-06T07:23:07;4.90;;;1.95;;
84412;SDS011;74611;53.106;8.778;2024-03-06T07:25:33;3.95;;;1.83;;
84412;SDS011;74611;53.106;8.778;2024-03-06T07:27:59;2.03;;;0.75;;
84412;SDS011;74611;53.106;8.778;2024-03-06T07:30:24;4.15;;;1.30;;
84412;SDS011;74611;53.106;8.778;2024-03-06T07:32:50;5.53;;;1.40;;
84412;SDS011;74611;53.106;8.778;2024-03-06T07:35:15;13.05;;;2.65;;
84412;SDS011;74611;53.106;8.778;2024-03-06T07:37:42;5.43;;;1.83;;
84412;SDS011;74611;53.106;8.778;2024-03-06T07:40:09;7.45;;;2.13;;
84412;SDS011;74611;53.106;8.778;2024-03-06T07:42:35;5.28;;;2.03;;
84412;SDS011;74611;53.106;8.778;2024-03-06T07:45:03;3.55;;;1.20;;
84412;SDS011;74611;53.106;8.778;2024-03-06T07:47:30;4.72;;;1.80;;
84412;SDS011;74611;53.106;8.778;2024-03-06T07:49:55;6.53;;;2.13;;
84412;SDS011;74611;53.106;8.778;2024-03-06T07:52:21;3.72;;;1.92;;
84412;SDS011;74611;53.106;8.778;2024-03-06T07:54:46;4.10;;;1.45;;
84412;SDS011;74611;53.106;8.778;2024-03-06T07:57:12;4.15;;;2.08;;
84412;SDS011;74611;53.106;8.778;2024-03-06T07:59:37;4.65;;;1.85;;
84412;SDS011;74611;53.106;8.778;2024-03-06T08:02:03;7.72;;;2.80;;
84412;SDS011;74611;53.106;8.778;2024-03-06T08:04:30;4.00;;;1.63;;
84412;SDS011;74611;53.106;8.778;2024-03-06T08:06:55;9.43;;;3.28;;
84412;SDS011;74611;53.106;8.778;2024-03-06T08:09:21;10.70;;;2.28;;
84412;SDS011;74611;53.106;8.778;2024-03-06T08:14:14;5.50;;;2.35;;
84412;SDS011;74611;53.106;8.778;2024-03-06T08:16:42;11.10;;;2.30;;
84412;SDS011;74611;53.106;8.778;2024-03-06T08:19:07;4.85;;;1.65;;
84412;SDS011;74611;53.106;8.778;2024-03-06T08:21:34;5.70;;;2.05;;
84412;SDS011;74611;53.106;8.778;2024-03-06T08:24:00;6.53;;;2.45;;
84412;SDS011;74611;53.106;8.778;2024-03-06T08:26:26;5.22;;;2.30;;
84412;SDS011;74611;53.106;8.778;2024-03-06T08:28:51;12.90;;;2.17;;
84412;SDS011;74611;53.106;8.778;2024-03-06T08:31:18;6.85;;;2.53;;
84412;SDS011;74611;53.106;8.778;2024-03-06T08:33:43;3.92;;;1.63;;
84412;SDS011;74611;53.106;8.778;2024-03-06T08:36:09;6.97;;;2.72;;
84412;SDS011;74611;53.106;8.778;2024-03-06T08:38:35;5.93;;;2.33;;
84412;SDS011;74611;53.106;8.778;2024-03-06T08:41:01;4.97;;;1.38;;
84412;SDS011;74611;53.106;8.778;2024-03-06T08:43:26;4.35;;;2.05;;
84412;SDS011;74611;53.106;8.778;2024-03-06T08:45:52;8.00;;;2.83;;
84412;SDS011;74611;53.106;8.778;2024-03-06T08:48:17;6.38;;;1.90;;
84412;SDS011;74611;53.106;8.778;2024-03-06T08:50:43;5.68;;;2.30;;
84412;SDS011;74611;53.106;8.778;2024-03-06T08:53:09;4.82;;;1.98;;
84412;SDS011;74611;53.106;8.778;2024-03-06T08:55:34;6.93;;;2.30;;
84412;SDS011;74611;53.106;8.778;2024-03-06T08:58:00;6.50;;;2.53;;
84412;SDS011;74611;53.106;8.778;2024-03-06T09:00:26;2.53;;;1.17;;
84412;SDS011;74611;53.106;8.778;2024-03-06T09:02:52;14.23;;;2.47;;
84412;SDS011;74611;53.106;8.778;2024-03-06T09:05:18;6.65;;;1.77;;
84412;SDS011;74611;53.106;8.778;2024-03-06T09:07:44;8.05;;;2.25;;
84412;SDS011;74611;53.106;8.778;2024-03-06T09:10:10;4.70;;;1.55;;
84412;SDS011;74611;53.106;8.778;2024-03-06T09:12:36;7.68;;;2.28;;
84412;SDS011;74611;53.106;8.778;2024-03-06T09:15:02;5.35;;;1.75;;
84412;SDS011;74611;53.106;8.778;2024-03-06T09:17:29;3.30;;;1.48;;
84412;SDS011;74611;53.106;8.778;2024-03-06T09:19:54;7.25;;;1.75;;
84412;SDS011;74611;53.106;8.778;2024-03-06T09:22:21;5.45;;;2.08;;
84412;SDS011;74611;53.106;8.778;2024-03-06T09:24:46;5.95;;;2.33;;
84412;SDS011;74611;53.106;8.778;2024-03-06T09:27:13;5.50;;;1.80;;
84412;SDS011;74611;53.106;8.778;2024-03-06T09:29:39;5.68;;;2.08;;
84412;SDS011;74611;53.106;8.778;2024-03-06T09:32:06;6.32;;;2.55;;
84412;SDS011;74611;53.106;8.778;2024-03-06T09:34:31;7.90;;;3.03;;
84412;SDS011;74611;53.106;8.778;2024-03-06T09:36:57;2.83;;;1.25;;
84412;SDS011;74611;53.106;8.778;2024-03-06T09:39:23;5.35;;;1.75;;
84412;SDS011;74611;53.106;8.778;2024-03-06T09:41:49;4.90;;;1.90;;
84412;SDS011;74611;53.106;8.778;2024-03-06T09:46:43;5.30;;;1.75;;
84412;SDS011;74611;53.106;8.778;2024-03-06T09:49:17;7.82;;;2.03;;
84412;SDS011;74611;53.106;8.778;2024-03-06T09:51:44;5.70;;;2.00;;
84412;SDS011;74611;53.106;8.778;2024-03-06T09:54:11;6.82;;;2.47;;
84412;SDS011;74611;53.106;8.778;2024-03-06T09:56:40;8.43;;;2.17;;
84412;SDS011;74611;53.106;8.778;2024-03-06T09:59:08;7.55;;;2.90;;
84412;SDS011;74611;53.106;8.778;2024-03-06T10:01:33;6.72;;;2.38;;
84412;SDS011;74611;53.106;8.778;2024-03-06T10:04:18;8.85;;;3.58;;
84412;SDS011;74611;53.106;8.778;2024-03-06T10:06:45;7.85;;;2.60;;
84412;SDS011;74611;53.106;8.778;2024-03-06T10:09:11;7.82;;;3.25;;
84412;SDS011;74611;53.106;8.778;2024-03-06T10:11:40;5.22;;;2.25;;
84412;SDS011;74611;53.106;8.778;2024-03-06T10:14:07;7.50;;;2.40;;
84412;SDS011;74611;53.106;8.778;2024-03-06T10:16:35;6.18;;;2.40;;
84412;SDS011;74611;53.106;8.778;2024-03-06T10:19:17;6.57;;;2.90;;
84412;SDS011;74611;53.106;8.778;2024-03-06T10:21:47;9.05;;;2.95;;
84412;SDS011;74611;53.106;8.778;2024-03-06T10:24:19;7.35;;;2.92;;
84412;SDS011;74611;53.106;8.778;2024-03-06T10:26:54;7.85;;;2.92;;
84412;SDS011;74611;53.106;8.778;2024-03-06T10:29:24;5.57;;;2.22;;
84412;SDS011;74611;53.106;8.778;2024-03-06T10:31:52;9.10;;;3.33;;
84412;SDS011;74611;53.106;8.778;2024-03-06T10:34:22;7.70;;;2.83;;
84412;SDS011;74611;53.106;8.778;2024-03-06T10:39:22;7.75;;;2.72;;
84412;SDS011;74611;53.106;8.778;2024-03-06T10:41:53;8.50;;;3.20;;
84412;SDS011;74611;53.106;8.778;2024-03-06T10:44:21;8.82;;;2.95;;
84412;SDS011;74611;53.106;8.778;2024-03-06T10:46:50;7.93;;;2.95;;
84412;SDS011;74611;53.106;8.778;2024-03-06T10:49:26;7.38;;;2.33;;
84412;SDS011;74611;53.106;8.778;2024-03-06T10:51:54;6.13;;;2.30;;
84412;SDS011;74611;53.106;8.778;2024-03-06T10:54:26;9.20;;;3.08;;
84412;SDS011;74611;53.106;8.778;2024-03-06T10:56:53;7.18;;;2.80;;
84412;SDS011;74611;53.106;8.778;2024-03-06T10:59:19;7.35;;;3.03;;
84412;SDS011;74611;53.106;8.778;2024-03-06T11:01:46;8.43;;;2.35;;
84412;SDS011;74611;53.106;8.778;2024-03-06T11:04:12;9.80;;;3.25;;
84412;SDS011;74611;53.106;8.778;2024-03-06T11:06:40;8.52;;;3.08;;
84412;SDS011;74611;53.106;8.778;2024-03-06T11:09:05;11.52;;;3.08;;
84412;SDS011;74611;53.106;8.778;2024-03-06T11:11:31;12.48;;;3.50;;
84412;SDS011;74611;53.106;8.778;2024-03-06T11:14:00;13.05;;;3.78;;
84412;SDS011;74611;53.106;8.778;2024-03-06T11:16:32;9.73;;;3.70;;
84412;SDS011;74611;53.106;8.778;2024-03-06T11:19:28;9.13;;;3.83;;
84412;SDS011;74611;53.106;8.778;2024-03-06T11:21:58;9.23;;;4.15;;
84412;SDS011;74611;53.106;8.778;2024-03-06T11:24:34;9.63;;;4.15;;
84412;SDS011;74611;53.106;8.778;2024-03-06T11:30:02;15.82;;;4.65;;
84412;SDS011;74611;53.106;8.778;2024-03-06T11:32:36;16.90;;;4.82;;
84412;SDS011;74611;53.106;8.778;2024-03-06T11:35:22;5.50;;;2.65;;
84412;SDS011;74611;53.106;8.778;2024-03-06T11:37:49;13.48;;;4.90;;
84412;SDS011;74611;53.106;8.778;2024-03-06T11:40:22;10.65;;;4.63;;
84412;SDS011;74611;53.106;8.778;2024-03-06T11:42:49;12.20;;;4.30;;
84412;SDS011;74611;53.106;8.778;2024-03-06T11:45:18;9.85;;;3.97;;
84412;SDS011;74611;53.106;8.778;2024-03-06T11:48:02;9.85;;;4.75;;
84412;SDS011;74611;53.106;8.778;2024-03-06T11:50:28;10.52;;;3.33;;
84412;SDS011;74611;53.106;8.778;2024-03-06T11:52:58;13.45;;;4.18;;
84412;SDS011;74611;53.106;8.778;2024-03-06T11:55:23;13.75;;;3.78;;
84412;SDS011;74611;53.106;8.778;2024-03-06T11:57:52;11.18;;;4.05;;
84412;SDS011;74611;53.106;8.778;2024-03-06T12:00:24;9.68;;;3.40;;
84412;SDS011;74611;53.106;8.778;2024-03-06T12:02:49;14.30;;;4.97;;
84412;SDS011;74611;53.106;8.778;2024-03-06T12:05:17;13.23;;;4.65;;
84412;SDS011;74611;53.106;8.778;2024-03-06T12:07:49;18.75;;;4.20;;
84412;SDS011;74611;53.106;8.778;2024-03-06T12:10:18;12.13;;;4.10;;
84412;SDS011;74611;53.106;8.778;2024-03-06T12:12:44;13.35;;;4.30;;
84412;SDS011;74611;53.106;8.778;2024-03-06T12:15:10;12.90;;;4.90;;
84412;SDS011;74611;53.106;8.778;2024-03-06T12:17:49;10.43;;;4.50;;
84412;SDS011;74611;53.106;8.778;2024-03-06T12:20:16;10.98;;;4.43;;
84412;SDS011;74611;53.106;8.778;2024-03-06T12:22:52;12.10;;;4.88;;
84412;SDS011;74611;53.106;8.778;2024-03-06T12:25:24;10.40;;;3.75;;
84412;SDS011;74611;53.106;8.778;2024-03-06T12:27:54;12.93;;;3.92;;
84412;SDS011;74611;53.106;8.778;2024-03-06T12:30:20;13.18;;;4.10;;
84412;SDS011;74611;53.106;8.778;2024-03-06T12:33:00;20.80;;;4.57;;
84412;SDS011;74611;53.106;8.778;2024-03-06T12:35:29;10.55;;;3.47;;
84412;SDS011;74611;53.106;8.778;2024-03-06T12:37:56;10.77;;;3.75;;
84412;SDS011;74611;53.106;8.778;2024-03-06T12:40:22;8.95;;;3.60;;
84412;SDS011;74611;53.106;8.778;2024-03-06T12:42:49;7.45;;;2.78;;
84412;SDS011;74611;53.106;8.778;2024-03-06T12:45:15;11.82;;;4.18;;
84412;SDS011;74611;53.106;8.778;2024-03-06T12:47:47;17.98;;;3.75;;
84412;SDS011;74611;53.106;8.778;2024-03-06T12:52:40;10.50;;;3.63;;
84412;SDS011;74611;53.106;8.778;2024-03-06T12:55:06;11.35;;;3.72;;
84412;SDS011;74611;53.106;8.778;2024-03-06T12:57:33;12.25;;;4.50;;
84412;SDS011;74611;53.106;8.778;2024-03-06T12:59:59;11.65;;;4.00;;
84412;SDS011;74611;53.106;8.778;2024-03-06T13:02:25;9.38;;;3.92;;
84412;SDS011;74611;53.106;8.778;2024-03-06T13:04:51;16.10;;;4.18;;
84412;SDS011;74611;53.106;8.778;2024-03-06T13:07:17;10.13;;;4.03;;
84412;SDS011;74611;53.106;8.778;2024-03-06T13:09:43;10.27;;;4.32;;
84412;SDS011;74611;53.106;8.778;2024-03-06T13:12:08;12.63;;;4.18;;
84412;SDS011;74611;53.106;8.778;2024-03-06T13:14:34;13.80;;;4.22;;
84412;SDS011;74611;53.106;8.778;2024-03-06T13:17:00;10.52;;;3.83;;
84412;SDS011;74611;53.106;8.778;2024-03-06T13:19:26;11.10;;;4.05;;
84412;SDS011;74611;53.106;8.778;2024-03-06T13:21:52;11.18;;;4.18;;
84412;SDS011;74611;53.106;8.778;2024-03-06T13:24:18;15.30;;;4.88;;
84412;SDS011;74611;53.106;8.778;2024-03-06T13:26:44;12.70;;;4.55;;
84412;SDS011;74611;53.106;8.778;2024-03-06T13:29:10;10.93;;;3.50;;
84412;SDS011;74611;53.106;8.778;2024-03-06T13:31:36;15.90;;;4.80;;
84412;SDS011;74611;53.106;8.778;2024-03-06T13:34:03;14.73;;;4.88;;
84412;SDS011;74611;53.106;8.778;2024-03-06T13:36:29;16.75;;;5.38;;
84412;SDS011;74611;53.106;8.778;2024-03-06T13:38:55;13.82;;;5.47;;
84412;SDS011;74611;53.106;8.778;2024-03-06T13:41:21;25.65;;;4.85;;
84412;SDS011;74611;53.106;8.778;2024-03-06T13:43:47;12.95;;;5.13;;
84412;SDS011;74611;53.106;8.778;2024-03-06T13:46:13;10.95;;;4.05;;
84412;SDS011;74611;53.106;8.778;2024-03-06T13:48:39;13.05;;;4.93;;
84412;SDS011;74611;53.106;8.778;2024-03-06T13:51:05;13.10;;;4.82;;
84412;SDS011;74611;53.106;8.778;2024-03-06T13:53:31;13.25;;;5.25;;
84412;SDS011;74611;53.106;8.778;2024-03-06T13:55:57;12.80;;;4.85;;
84412;SDS011;74611;53.106;8.778;2024-03-06T13:58:23;12.50;;;4.65;;
84412;SDS011;74611;53.106;8.778;2024-03-06T14:00:49;16.75;;;4.72;;
84412;SDS011;74611;53.106;8.778;2024-03-06T14:03:14;11.95;;;4.60;;
84412;SDS011;74611;53.106;8.778;2024-03-06T14:05:40;13.43;;;5.20;;
84412;SDS011;74611;53.106;8.778;2024-03-06T14:08:06;12.40;;;4.50;;
84412;SDS011;74611;53.106;8.778;2024-03-06T14:10:32;13.00;;;4.68;;
84412;SDS011;74611;53.106;8.778;2024-03-06T14:12:59;13.88;;;5.53;;
84412;SDS011;74611;53.106;8.778;2024-03-06T14:15:25;13.30;;;5.38;;
84412;SDS011;74611;53.106;8.778;2024-03-06T14:17:51;11.15;;;4.70;;
84412;SDS011;74611;53.106;8.778;2024-03-06T14:20:19;11.98;;;5.00;;
84412;SDS011;74611;53.106;8.778;2024-03-06T14:22:48;13.18;;;4.95;;
84412;SDS011;74611;53.106;8.778;2024-03-06T14:25:14;11.35;;;4.15;;
84412;SDS011;74611;53.106;8.778;2024-03-06T14:27:40;12.80;;;4.53;;
84412;SDS011;74611;53.106;8.778;2024-03-06T14:30:06;14.45;;;5.05;;
84412;SDS011;74611;53.106;8.778;2024-03-06T14:32:32;12.10;;;4.75;;
84412;SDS011;74611;53.106;8.778;2024-03-06T14:34:59;10.93;;;4.10;;
84412;SDS011;74611;53.106;8.778;2024-03-06T14:37:24;13.80;;;4.43;;
84412;SDS011;74611;53.106;8.778;2024-03-06T14:39:50;11.18;;;4.75;;
84412;SDS011;74611;53.106;8.778;2024-03-06T14:42:19;13.82;;;4.50;;
84412;SDS011;74611;53.106;8.778;2024-03-06T14:44:45;11.65;;;4.75;;
84412;SDS011;74611;53.106;8.778;2024-03-06T14:47:11;11.88;;;4.57;;
84412;SDS011;74611;53.106;8.778;2024-03-06T14:49:37;12.85;;;5.07;;
84412;SDS011;74611;53.106;8.778;2024-03-06T14:52:05;17.15;;;4.50;;
84412;SDS011;74611;53.106;8.778;2024-03-06T14:54:31;15.82;;;4.53;;
84412;SDS011;74611;53.106;8.778;2024-03-06T14:56:57;12.98;;;4.60;;
84412;SDS011;74611;53.106;8.778;2024-03-06T14:59:23;16.63;;;4.70;;